sensor_id;sensor_type;location;lat;lon;timestamp;P1;durP1;ratioP1;P2;durP2;ratioP2
5805;SDS011;2929;50.810;8.342;2024-01-15T00:01:07;11.00;;;5.23;;
5805;SDS011;2929;50.810;8.342;2024-01-15T00:03:34;16.00;;;5.47;;
5805;SDS011;2929;50.810;8.342;2024-01-15T00:06:01;7.30;;;4.37;;
5805;SDS011;2929;50.810;8.342;2024-01-15T00:08:28;11.07;;;5.73;;
5805;SDS011;2929;50.810;8.342;2024-01-15T00:10:55;18.13;;;5.23;;
5805;SDS011;2929;50.810;8.342;2024-01-15T00:13:23;12.10;;;5.23;;
5805;SDS011;2929;50.810;8.342;2024-01-15T00:15:50;12.50;;;5.50;;
5805;SDS011;2929;50.810;8.342;2024-01-15T00:18:17;14.73;;;5.43;;
5805;SDS011;2929;50.810;8.342;2024-01-15T00:20:44;19.40;;;6.70;;
5805;SDS011;2929;50.810;8.342;2024-01-15T00:23:11;11.20;;;5.30;;
5805;SDS011;2929;50.810;8.342;2024-01-15T00:25:38;13.40;;;4.57;;
5805;SDS011;2929;50.810;8.342;2024-01-15T00:28:06;13.80;;;5.17;;
5805;SDS011;2929;50.810;8.342;2024-01-15T00:30:34;8.40;;;4.70;;
5805;SDS011;2929;50.810;8.342;2024-01-15T00:33:01;10.10;;;4.57;;
5805;SDS011;2929;50.810;8.342;2024-01-15T00:35:28;13.00;;;3.73;;
5805;SDS011;2929;50.810;8.342;2024-01-15T00:37:54;12.63;;;6.13;;
5805;SDS011;2929;50.810;8.342;2024-01-15T00:40:21;10.40;;;4.67;;
5805;SDS011;2929;50.810;8.342;2024-01-15T00:42:50;11.13;;;4.70;;
5805;SDS011;2929;50.810;8.342;2024-01-15T00:45:17;13.73;;;4.93;;
5805;SDS011;2929;50.810;8.342;2024-01-15T00:47:45;11.50;;;4.83;;
5805;SDS011;2929;50.810;8.342;2024-01-15T00:50:12;9.53;;;4.00;;
5805;SDS011;2929;50.810;8.342;2024-01-15T00:52:39;12.03;;;5.40;;
5805;SDS011;2929;50.810;8.342;2024-01-15T00:55:07;10.77;;;4.40;;
5805;SDS011;2929;50.810;8.342;2024-01-15T00:57:34;12.53;;;4.93;;
5805;SDS011;2929;50.810;8.342;2024-01-15T01:00:01;9.93;;;4.10;;
5805;SDS011;2929;50.810;8.342;2024-01-15T01:02:28;8.17;;;4.60;;
5805;SDS011;2929;50.810;8.342;2024-01-15T01:04:56;7.57;;;3.77;;
5805;SDS011;2929;50.810;8.342;2024-01-15T01:07:23;12.10;;;4.50;;
5805;SDS011;2929;50.810;8.342;2024-01-15T01:09:50;11.27;;;3.87;;
5805;SDS011;2929;50.810;8.342;2024-01-15T01:12:17;10.73;;;5.40;;
5805;SDS011;2929;50.810;8.342;2024-01-15T01:14:45;12.00;;;5.70;;
5805;SDS011;2929;50.810;8.342;2024-01-15T01:17:12;11.30;;;5.47;;
5805;SDS011;2929;50.810;8.342;2024-01-15T01:19:39;12.20;;;4.40;;
5805;SDS011;2929;50.810;8.342;2024-01-15T01:22:07;14.03;;;5.27;;
5805;SDS011;2929;50.810;8.342;2024-01-15T01:24:34;11.13;;;5.40;;
5805;SDS011;2929;50.810;8.342;2024-01-15T01:27:01;10.23;;;4.60;;
5805;SDS011;2929;50.810;8.342;2024-01-15T01:29:28;11.03;;;5.07;;
5805;SDS011;2929;50.810;8.342;2024-01-15T01:31:55;9.63;;;4.60;;
5805;SDS011;2929;50.810;8.342;2024-01-15T01:34:22;9.33;;;5.10;;
5805;SDS011;2929;50.810;8.342;2024-01-15T01:36:49;14.50;;;6.17;;
5805;SDS011;2929;50.810;8.342;2024-01-15T01:39:17;14.63;;;6.20;;
5805;SDS011;2929;50.810;8.342;2024-01-15T01:41:44;10.53;;;4.93;;
5805;SDS011;2929;50.810;8.342;2024-01-15T01:44:12;11.43;;;4.97;;
5805;SDS011;2929;50.810;8.342;2024-01-15T01:46:43;10.30;;;4.77;;
5805;SDS011;2929;50.810;8.342;2024-01-15T01:49:10;15.00;;;5.70;;
5805;SDS011;2929;50.810;8.342;2024-01-15T01:51:37;7.70;;;5.50;;
5805;SDS011;2929;50.810;8.342;2024-01-15T01:54:05;10.63;;;4.63;;
5805;SDS011;2929;50.810;8.342;2024-01-15T01:56:35;11.60;;;6.17;;
5805;SDS011;2929;50.810;8.342;2024-01-15T01:59:02;11.03;;;5.80;;
5805;SDS011;2929;50.810;8.342;2024-01-15T02:01:31;11.10;;;5.40;;
5805;SDS011;2929;50.810;8.342;2024-01-15T02:03:58;15.00;;;5.90;;
5805;SDS011;2929;50.810;8.342;2024-01-15T02:06:26;16.67;;;6.17;;
5805;SDS011;2929;50.810;8.342;2024-01-15T02:08:53;21.47;;;5.87;;
5805;SDS011;2929;50.810;8.342;2024-01-15T02:11:20;11.30;;;5.50;;
5805;SDS011;2929;50.810;8.342;2024-01-15T02:13:49;12.87;;;6.13;;
5805;SDS011;2929;50.810;8.342;2024-01-15T02:16:17;10.77;;;5.20;;
5805;SDS011;2929;50.810;8.342;2024-01-15T02:18:45;14.07;;;5.80;;
5805;SDS011;2929;50.810;8.342;2024-01-15T02:21:13;18.90;;;5.73;;
5805;SDS011;2929;50.810;8.342;2024-01-15T02:23:43;14.30;;;5.67;;
5805;SDS011;2929;50.810;8.342;2024-01-15T02:26:10;15.50;;;4.67;;
5805;SDS011;2929;50.810;8.342;2024-01-15T02:28:37;6.30;;;3.97;;
5805;SDS011;2929;50.810;8.342;2024-01-15T02:31:04;7.63;;;4.57;;
5805;SDS011;2929;50.810;8.342;2024-01-15T02:33:31;9.90;;;5.50;;
5805;SDS011;2929;50.810;8.342;2024-01-15T02:35:57;8.50;;;4.83;;
5805;SDS011;2929;50.810;8.342;2024-01-15T02:38:24;12.30;;;6.40;;
5805;SDS011;2929;50.810;8.342;2024-01-15T02:40:52;14.93;;;6.20;;
5805;SDS011;2929;50.810;8.342;2024-01-15T02:43:19;8.87;;;4.80;;
5805;SDS011;2929;50.810;8.342;2024-01-15T02:45:46;14.10;;;6.53;;
5805;SDS011;2929;50.810;8.342;2024-01-15T02:48:13;9.70;;;6.07;;
5805;SDS011;2929;50.810;8.342;2024-01-15T02:50:40;11.97;;;5.73;;
5805;SDS011;2929;50.810;8.342;2024-01-15T02:53:07;14.40;;;6.43;;
5805;SDS011;2929;50.810;8.342;2024-01-15T02:55:33;15.57;;;7.40;;
5805;SDS011;2929;50.810;8.342;2024-01-15T02:58:01;12.20;;;6.63;;
5805;SDS011;2929;50.810;8.342;2024-01-15T03:00:28;19.37;;;7.33;;
5805;SDS011;2929;50.810;8.342;2024-01-15T03:02:55;13.67;;;6.50;;
5805;SDS011;2929;50.810;8.342;2024-01-15T03:05:22;15.93;;;7.47;;
5805;SDS011;2929;50.810;8.342;2024-01-15T03:07:49;16.30;;;7.50;;
5805;SDS011;2929;50.810;8.342;2024-01-15T03:10:16;15.40;;;7.00;;
5805;SDS011;2929;50.810;8.342;2024-01-15T03:12:43;16.23;;;6.67;;
5805;SDS011;2929;50.810;8.342;2024-01-15T03:15:11;14.93;;;7.33;;
5805;SDS011;2929;50.810;8.342;2024-01-15T03:17:40;23.43;;;8.17;;
5805;SDS011;2929;50.810;8.342;2024-01-15T03:20:08;13.30;;;6.90;;
5805;SDS011;2929;50.810;8.342;2024-01-15T03:22:36;19.50;;;8.60;;
5805;SDS011;2929;50.810;8.342;2024-01-15T03:25:03;16.93;;;8.33;;
5805;SDS011;2929;50.810;8.342;2024-01-15T03:27:30;16.90;;;7.73;;
5805;SDS011;2929;50.810;8.342;2024-01-15T03:29:57;16.70;;;7.20;;
5805;SDS011;2929;50.810;8.342;2024-01-15T03:32:25;11.70;;;7.30;;
5805;SDS011;2929;50.810;8.342;2024-01-15T03:34:52;14.90;;;7.83;;
5805;SDS011;2929;50.810;8.342;2024-01-15T03:37:19;15.90;;;7.30;;
5805;SDS011;2929;50.810;8.342;2024-01-15T03:39:46;16.10;;;6.87;;
5805;SDS011;2929;50.810;8.342;2024-01-15T03:42:13;14.53;;;7.20;;
5805;SDS011;2929;50.810;8.342;2024-01-15T03:44:43;14.33;;;6.97;;
5805;SDS011;2929;50.810;8.342;2024-01-15T03:47:10;11.07;;;6.90;;
5805;SDS011;2929;50.810;8.342;2024-01-15T03:49:38;11.50;;;5.10;;
5805;SDS011;2929;50.810;8.342;2024-01-15T03:52:05;14.40;;;6.60;;
5805;SDS011;2929;50.810;8.342;2024-01-15T03:54:32;12.80;;;7.07;;
5805;SDS011;2929;50.810;8.342;2024-01-15T03:56:59;13.70;;;7.10;;
5805;SDS011;2929;50.810;8.342;2024-01-15T03:59:26;16.13;;;6.70;;
5805;SDS011;2929;50.810;8.342;2024-01-15T04:01:53;13.17;;;6.43;;
5805;SDS011;2929;50.810;8.342;2024-01-15T04:04:20;12.03;;;7.20;;
5805;SDS011;2929;50.810;8.342;2024-01-15T04:06:49;11.97;;;6.33;;
5805;SDS011;2929;50.810;8.342;2024-01-15T04:09:16;11.73;;;6.33;;
5805;SDS011;2929;50.810;8.342;2024-01-15T04:11:42;9.10;;;5.37;;
5805;SDS011;2929;50.810;8.342;2024-01-15T04:14:09;13.70;;;7.63;;
5805;SDS011;2929;50.810;8.342;2024-01-15T04:16:37;13.80;;;6.60;;
5805;SDS011;2929;50.810;8.342;2024-01-15T04:19:04;17.63;;;7.03;;
5805;SDS011;2929;50.810;8.342;2024-01-15T04:21:31;20.87;;;8.20;;
5805;SDS011;2929;50.810;8.342;2024-01-15T04:23:59;16.50;;;7.87;;
5805;SDS011;2929;50.810;8.342;2024-01-15T04:26:26;24.30;;;8.00;;
5805;SDS011;2929;50.810;8.342;2024-01-15T04:28:53;19.93;;;7.63;;
5805;SDS011;2929;50.810;8.342;2024-01-15T04:31:23;16.47;;;7.70;;
5805;SDS011;2929;50.810;8.342;2024-01-15T04:33:52;18.83;;;8.70;;
5805;SDS011;2929;50.810;8.342;2024-01-15T04:36:19;19.37;;;8.07;;
5805;SDS011;2929;50.810;8.342;2024-01-15T04:38:46;15.70;;;7.60;;
5805;SDS011;2929;50.810;8.342;2024-01-15T04:41:15;13.33;;;7.37;;
5805;SDS011;2929;50.810;8.342;2024-01-15T04:43:44;15.03;;;7.90;;
5805;SDS011;2929;50.810;8.342;2024-01-15T04:46:11;22.80;;;7.27;;
5805;SDS011;2929;50.810;8.342;2024-01-15T04:48:37;15.80;;;6.33;;
5805;SDS011;2929;50.810;8.342;2024-01-15T04:51:04;19.70;;;8.17;;
5805;SDS011;2929;50.810;8.342;2024-01-15T04:53:32;16.00;;;7.20;;
5805;SDS011;2929;50.810;8.342;2024-01-15T04:56:01;18.37;;;9.67;;
5805;SDS011;2929;50.810;8.342;2024-01-15T04:58:29;13.67;;;6.20;;
5805;SDS011;2929;50.810;8.342;2024-01-15T05:00:56;11.30;;;5.70;;
5805;SDS011;2929;50.810;8.342;2024-01-15T05:03:23;16.50;;;7.73;;
5805;SDS011;2929;50.810;8.342;2024-01-15T05:05:49;14.60;;;6.97;;
5805;SDS011;2929;50.810;8.342;2024-01-15T05:08:16;17.37;;;7.13;;
5805;SDS011;2929;50.810;8.342;2024-01-15T05:10:43;13.13;;;6.10;;
5805;SDS011;2929;50.810;8.342;2024-01-15T05:13:10;16.03;;;7.10;;
5805;SDS011;2929;50.810;8.342;2024-01-15T05:15:39;20.10;;;9.00;;
5805;SDS011;2929;50.810;8.342;2024-01-15T05:18:06;25.50;;;7.80;;
5805;SDS011;2929;50.810;8.342;2024-01-15T05:20:33;13.80;;;6.80;;
5805;SDS011;2929;50.810;8.342;2024-01-15T05:23:00;14.27;;;6.87;;
5805;SDS011;2929;50.810;8.342;2024-01-15T05:25:27;23.53;;;7.93;;
5805;SDS011;2929;50.810;8.342;2024-01-15T05:27:54;21.67;;;7.53;;
5805;SDS011;2929;50.810;8.342;2024-01-15T05:30:21;24.67;;;6.87;;
5805;SDS011;2929;50.810;8.342;2024-01-15T05:32:50;14.73;;;6.60;;
5805;SDS011;2929;50.810;8.342;2024-01-15T05:35:17;20.23;;;7.33;;
5805;SDS011;2929;50.810;8.342;2024-01-15T05:37:44;15.10;;;7.77;;
5805;SDS011;2929;50.810;8.342;2024-01-15T05:40:12;20.00;;;8.43;;
5805;SDS011;2929;50.810;8.342;2024-01-15T05:42:39;15.70;;;7.43;;
5805;SDS011;2929;50.810;8.342;2024-01-15T05:45:08;18.00;;;6.40;;
5805;SDS011;2929;50.810;8.342;2024-01-15T05:47:36;19.30;;;7.00;;
5805;SDS011;2929;50.810;8.342;2024-01-15T05:50:04;10.83;;;6.40;;
5805;SDS011;2929;50.810;8.342;2024-01-15T05:52:32;14.20;;;6.90;;
5805;SDS011;2929;50.810;8.342;2024-01-15T05:54:59;21.67;;;8.00;;
5805;SDS011;2929;50.810;8.342;2024-01-15T05:57:27;13.50;;;6.00;;
5805;SDS011;2929;50.810;8.342;2024-01-15T05:59:54;17.27;;;7.27;;
5805;SDS011;2929;50.810;8.342;2024-01-15T06:02:21;18.23;;;7.27;;
5805;SDS011;2929;50.810;8.342;2024-01-15T06:04:48;12.50;;;6.63;;
5805;SDS011;2929;50.810;8.342;2024-01-15T06:07:16;24.90;;;7.53;;
5805;SDS011;2929;50.810;8.342;2024-01-15T06:09:43;14.90;;;7.27;;
5805;SDS011;2929;50.810;8.342;2024-01-15T06:12:11;15.70;;;5.47;;
5805;SDS011;2929;50.810;8.342;2024-01-15T06:14:38;14.50;;;7.80;;
5805;SDS011;2929;50.810;8.342;2024-01-15T06:17:06;17.90;;;7.40;;
5805;SDS011;2929;50.810;8.342;2024-01-15T06:19:33;19.43;;;8.90;;
5805;SDS011;2929;50.810;8.342;2024-01-15T06:22:00;25.17;;;8.77;;
5805;SDS011;2929;50.810;8.342;2024-01-15T06:24:28;15.80;;;6.20;;
5805;SDS011;2929;50.810;8.342;2024-01-15T06:26:55;14.53;;;7.43;;
5805;SDS011;2929;50.810;8.342;2024-01-15T06:29:22;21.30;;;8.33;;
5805;SDS011;2929;50.810;8.342;2024-01-15T06:31:51;12.53;;;6.10;;
5805;SDS011;2929;50.810;8.342;2024-01-15T06:34:18;17.40;;;7.30;;
5805;SDS011;2929;50.810;8.342;2024-01-15T06:36:45;17.43;;;6.70;;
5805;SDS011;2929;50.810;8.342;2024-01-15T06:39:12;15.10;;;7.10;;
5805;SDS011;2929;50.810;8.342;2024-01-15T06:41:41;10.17;;;5.87;;
5805;SDS011;2929;50.810;8.342;2024-01-15T06:44:09;9.23;;;5.53;;
5805;SDS011;2929;50.810;8.342;2024-01-15T06:46:36;18.87;;;7.27;;
5805;SDS011;2929;50.810;8.342;2024-01-15T06:49:07;14.93;;;6.40;;
5805;SDS011;2929;50.810;8.342;2024-01-15T06:51:35;13.47;;;5.80;;
5805;SDS011;2929;50.810;8.342;2024-01-15T06:54:01;17.13;;;6.83;;
5805;SDS011;2929;50.810;8.342;2024-01-15T06:56:28;13.00;;;5.93;;
5805;SDS011;2929;50.810;8.342;2024-01-15T06:58:57;12.70;;;6.80;;
5805;SDS011;2929;50.810;8.342;2024-01-15T07:01:24;12.13;;;6.83;;
5805;SDS011;2929;50.810;8.342;2024-01-15T07:03:51;16.90;;;7.03;;
5805;SDS011;2929;50.810;8.342;2024-01-15T07:06:17;14.50;;;6.70;;
5805;SDS011;2929;50.810;8.342;2024-01-15T07:08:45;11.23;;;6.17;;
5805;SDS011;2929;50.810;8.342;2024-01-15T07:11:12;16.33;;;6.60;;
5805;SDS011;2929;50.810;8.342;2024-01-15T07:13:40;12.37;;;6.20;;
5805;SDS011;2929;50.810;8.342;2024-01-15T07:16:08;29.53;;;7.07;;
5805;SDS011;2929;50.810;8.342;2024-01-15T07:18:36;15.93;;;6.33;;
5805;SDS011;2929;50.810;8.342;2024-01-15T07:21:03;13.00;;;6.83;;
5805;SDS011;2929;50.810;8.342;2024-01-15T07:23:30;11.97;;;6.23;;
5805;SDS011;2929;50.810;8.342;2024-01-15T07:25:58;16.67;;;7.30;;
5805;SDS011;2929;50.810;8.342;2024-01-15T07:28:24;14.83;;;5.70;;
5805;SDS011;2929;50.810;8.342;2024-01-15T07:30:51;21.43;;;7.03;;
5805;SDS011;2929;50.810;8.342;2024-01-15T07:33:20;10.40;;;5.50;;
5805;SDS011;2929;50.810;8.342;2024-01-15T07:35:48;16.00;;;6.70;;
5805;SDS011;2929;50.810;8.342;2024-01-15T07:38:15;19.07;;;5.20;;
5805;SDS011;2929;50.810;8.342;2024-01-15T07:40:42;18.77;;;7.43;;
5805;SDS011;2929;50.810;8.342;2024-01-15T07:43:09;16.73;;;6.90;;
5805;SDS011;2929;50.810;8.342;2024-01-15T07:45:36;16.07;;;6.63;;
5805;SDS011;2929;50.810;8.342;2024-01-15T07:48:03;13.13;;;5.90;;
5805;SDS011;2929;50.810;8.342;2024-01-15T07:50:32;10.03;;;5.60;;
5805;SDS011;2929;50.810;8.342;2024-01-15T07:52:59;8.03;;;4.97;;
5805;SDS011;2929;50.810;8.342;2024-01-15T07:55:26;14.97;;;6.70;;
5805;SDS011;2929;50.810;8.342;2024-01-15T07:57:53;16.80;;;6.47;;
5805;SDS011;2929;50.810;8.342;2024-01-15T08:00:23;14.90;;;6.27;;
5805;SDS011;2929;50.810;8.342;2024-01-15T08:02:50;11.83;;;6.37;;
5805;SDS011;2929;50.810;8.342;2024-01-15T08:05:18;10.83;;;5.40;;
5805;SDS011;2929;50.810;8.342;2024-01-15T08:07:47;10.27;;;4.57;;
5805;SDS011;2929;50.810;8.342;2024-01-15T08:10:14;6.70;;;4.77;;
5805;SDS011;2929;50.810;8.342;2024-01-15T08:12:41;13.50;;;5.37;;
5805;SDS011;2929;50.810;8.342;2024-01-15T08:15:08;14.17;;;5.73;;
5805;SDS011;2929;50.810;8.342;2024-01-15T08:17:34;22.70;;;4.73;;
5805;SDS011;2929;50.810;8.342;2024-01-15T08:20:01;10.17;;;4.83;;
5805;SDS011;2929;50.810;8.342;2024-01-15T08:22:30;14.27;;;4.90;;
5805;SDS011;2929;50.810;8.342;2024-01-15T08:24:58;7.70;;;4.23;;
5805;SDS011;2929;50.810;8.342;2024-01-15T08:27:25;10.23;;;4.57;;
5805;SDS011;2929;50.810;8.342;2024-01-15T08:29:53;9.77;;;5.77;;
5805;SDS011;2929;50.810;8.342;2024-01-15T08:32:20;13.17;;;5.30;;
5805;SDS011;2929;50.810;8.342;2024-01-15T08:34:47;6.77;;;4.60;;
5805;SDS011;2929;50.810;8.342;2024-01-15T08:37:17;5.67;;;3.60;;
5805;SDS011;2929;50.810;8.342;2024-01-15T08:39:44;7.00;;;3.83;;
5805;SDS011;2929;50.810;8.342;2024-01-15T08:42:12;12.87;;;4.40;;
5805;SDS011;2929;50.810;8.342;2024-01-15T08:44:39;9.30;;;5.80;;
5805;SDS011;2929;50.810;8.342;2024-01-15T08:47:08;12.80;;;6.33;;
5805;SDS011;2929;50.810;8.342;2024-01-15T08:49:35;12.70;;;5.50;;
5805;SDS011;2929;50.810;8.342;2024-01-15T08:52:02;8.60;;;5.70;;
5805;SDS011;2929;50.810;8.342;2024-01-15T08:54:29;10.00;;;5.97;;
5805;SDS011;2929;50.810;8.342;2024-01-15T08:56:56;6.77;;;4.50;;
5805;SDS011;2929;50.810;8.342;2024-01-15T08:59:26;11.33;;;5.87;;
5805;SDS011;2929;50.810;8.342;2024-01-15T09:01:53;8.27;;;3.73;;
5805;SDS011;2929;50.810;8.342;2024-01-15T09:04:22;6.17;;;4.23;;
5805;SDS011;2929;50.810;8.342;2024-01-15T09:06:49;7.67;;;4.40;;
5805;SDS011;2929;50.810;8.342;2024-01-15T09:09:17;5.80;;;3.73;;
5805;SDS011;2929;50.810;8.342;2024-01-15T09:11:44;5.90;;;4.13;;
5805;SDS011;2929;50.810;8.342;2024-01-15T09:14:11;9.33;;;4.10;;
5805;SDS011;2929;50.810;8.342;2024-01-15T09:16:39;9.47;;;4.90;;
5805;SDS011;2929;50.810;8.342;2024-01-15T09:19:07;7.70;;;3.73;;
5805;SDS011;2929;50.810;8.342;2024-01-15T09:21:34;5.40;;;3.90;;
5805;SDS011;2929;50.810;8.342;2024-01-15T09:24:01;5.80;;;3.63;;
5805;SDS011;2929;50.810;8.342;2024-01-15T09:26:28;4.87;;;3.00;;
5805;SDS011;2929;50.810;8.342;2024-01-15T09:28:56;8.17;;;3.70;;
5805;SDS011;2929;50.810;8.342;2024-01-15T09:31:23;5.10;;;3.63;;
5805;SDS011;2929;50.810;8.342;2024-01-15T09:33:52;5.37;;;3.73;;
5805;SDS011;2929;50.810;8.342;2024-01-15T09:36:21;6.80;;;3.57;;
5805;SDS011;2929;50.810;8.342;2024-01-15T09:38:49;7.10;;;3.90;;
5805;SDS011;2929;50.810;8.342;2024-01-15T09:41:16;5.90;;;3.80;;
5805;SDS011;2929;50.810;8.342;2024-01-15T09:43:43;5.47;;;3.40;;
5805;SDS011;2929;50.810;8.342;2024-01-15T09:46:13;6.30;;;3.87;;
5805;SDS011;2929;50.810;8.342;2024-01-15T09:48:43;7.40;;;3.70;;
5805;SDS011;2929;50.810;8.342;2024-01-15T09:51:11;6.90;;;4.00;;
5805;SDS011;2929;50.810;8.342;2024-01-15T09:53:38;8.23;;;4.23;;
5805;SDS011;2929;50.810;8.342;2024-01-15T09:56:07;8.23;;;4.97;;
5805;SDS011;2929;50.810;8.342;2024-01-15T09:58:37;8.73;;;4.40;;
5805;SDS011;2929;50.810;8.342;2024-01-15T10:01:05;9.07;;;4.90;;
5805;SDS011;2929;50.810;8.342;2024-01-15T10:03:33;7.57;;;4.43;;
5805;SDS011;2929;50.810;8.342;2024-01-15T10:06:00;6.40;;;3.30;;
5805;SDS011;2929;50.810;8.342;2024-01-15T10:08:29;5.47;;;3.60;;
5805;SDS011;2929;50.810;8.342;2024-01-15T10:10:57;5.00;;;3.53;;
5805;SDS011;2929;50.810;8.342;2024-01-15T10:13:24;7.73;;;3.70;;
5805;SDS011;2929;50.810;8.342;2024-01-15T10:15:51;9.27;;;4.47;;
5805;SDS011;2929;50.810;8.342;2024-01-15T10:18:19;6.57;;;3.40;;
5805;SDS011;2929;50.810;8.342;2024-01-15T10:20:48;6.30;;;3.53;;
5805;SDS011;2929;50.810;8.342;2024-01-15T10:23:15;7.00;;;4.00;;
5805;SDS011;2929;50.810;8.342;2024-01-15T10:25:43;6.33;;;3.77;;
5805;SDS011;2929;50.810;8.342;2024-01-15T10:28:10;7.73;;;3.90;;
5805;SDS011;2929;50.810;8.342;2024-01-15T10:30:37;10.03;;;4.47;;
5805;SDS011;2929;50.810;8.342;2024-01-15T10:33:04;12.37;;;3.97;;
5805;SDS011;2929;50.810;8.342;2024-01-15T10:35:31;11.30;;;4.47;;
5805;SDS011;2929;50.810;8.342;2024-01-15T10:37:59;4.93;;;3.40;;
5805;SDS011;2929;50.810;8.342;2024-01-15T10:40:27;9.37;;;4.87;;
5805;SDS011;2929;50.810;8.342;2024-01-15T10:42:55;6.10;;;3.60;;
5805;SDS011;2929;50.810;8.342;2024-01-15T10:45:22;7.20;;;4.40;;
5805;SDS011;2929;50.810;8.342;2024-01-15T10:47:50;8.77;;;4.60;;
5805;SDS011;2929;50.810;8.342;2024-01-15T10:50:29;10.07;;;5.10;;
5805;SDS011;2929;50.810;8.342;2024-01-15T10:52:58;7.23;;;4.50;;
5805;SDS011;2929;50.810;8.342;2024-01-15T10:55:25;14.60;;;4.60;;
5805;SDS011;2929;50.810;8.342;2024-01-15T10:57:52;9.23;;;4.53;;
5805;SDS011;2929;50.810;8.342;2024-01-15T11:00:23;11.03;;;4.67;;
5805;SDS011;2929;50.810;8.342;2024-01-15T11:02:50;9.30;;;4.27;;
5805;SDS011;2929;50.810;8.342;2024-01-15T11:05:20;8.87;;;4.40;;
5805;SDS011;2929;50.810;8.342;2024-01-15T11:07:49;9.93;;;5.40;;
5805;SDS011;2929;50.810;8.342;2024-01-15T11:13:19;7.93;;;4.13;;
5805;SDS011;2929;50.810;8.342;2024-01-15T11:15:58;9.47;;;4.20;;
5805;SDS011;2929;50.810;8.342;2024-01-15T11:18:27;8.30;;;4.20;;
5805;SDS011;2929;50.810;8.342;2024-01-15T11:23:52;9.13;;;4.53;;
5805;SDS011;2929;50.810;8.342;2024-01-15T11:26:32;11.73;;;4.93;;
5805;SDS011;2929;50.810;8.342;2024-01-15T11:29:03;4.23;;;2.90;;
5805;SDS011;2929;50.810;8.342;2024-01-15T11:37:27;5.43;;;3.80;;
5805;SDS011;2929;50.810;8.342;2024-01-15T11:39:55;5.93;;;3.30;;
5805;SDS011;2929;50.810;8.342;2024-01-15T11:42:28;5.40;;;2.50;;
5805;SDS011;2929;50.810;8.342;2024-01-15T11:44:56;4.70;;;2.90;;
5805;SDS011;2929;50.810;8.342;2024-01-15T11:50:32;4.43;;;2.43;;
5805;SDS011;2929;50.810;8.342;2024-01-15T11:53:01;4.47;;;2.23;;
5805;SDS011;2929;50.810;8.342;2024-01-15T11:55:29;4.00;;;2.23;;
5805;SDS011;2929;50.810;8.342;2024-01-15T11:58:00;5.63;;;2.83;;
5805;SDS011;2929;50.810;8.342;2024-01-15T12:00:28;2.00;;;1.80;;
5805;SDS011;2929;50.810;8.342;2024-01-15T12:02:55;3.70;;;2.00;;
5805;SDS011;2929;50.810;8.342;2024-01-15T12:05:27;3.00;;;2.23;;
5805;SDS011;2929;50.810;8.342;2024-01-15T12:07:56;2.60;;;2.17;;
5805;SDS011;2929;50.810;8.342;2024-01-15T12:10:23;6.50;;;3.10;;
5805;SDS011;2929;50.810;8.342;2024-01-15T12:12:57;4.13;;;3.00;;
5805;SDS011;2929;50.810;8.342;2024-01-15T12:15:26;3.97;;;2.27;;
5805;SDS011;2929;50.810;8.342;2024-01-15T12:17:54;3.30;;;2.63;;
5805;SDS011;2929;50.810;8.342;2024-01-15T12:20:23;3.40;;;2.10;;
5805;SDS011;2929;50.810;8.342;2024-01-15T12:22:50;2.10;;;1.80;;
5805;SDS011;2929;50.810;8.342;2024-01-15T12:25:19;2.00;;;1.90;;
5805;SDS011;2929;50.810;8.342;2024-01-15T12:27:46;2.93;;;2.60;;
5805;SDS011;2929;50.810;8.342;2024-01-15T12:30:14;2.03;;;1.83;;
5805;SDS011;2929;50.810;8.342;2024-01-15T12:32:41;2.27;;;1.97;;
5805;SDS011;2929;50.810;8.342;2024-01-15T12:35:09;1.53;;;1.43;;
5805;SDS011;2929;50.810;8.342;2024-01-15T12:37:37;1.47;;;1.30;;
5805;SDS011;2929;50.810;8.342;2024-01-15T12:40:07;3.07;;;1.63;;
5805;SDS011;2929;50.810;8.342;2024-01-15T12:42:37;1.30;;;1.20;;
5805;SDS011;2929;50.810;8.342;2024-01-15T12:45:06;3.53;;;1.40;;
5805;SDS011;2929;50.810;8.342;2024-01-15T12:47:35;1.43;;;1.33;;
5805;SDS011;2929;50.810;8.342;2024-01-15T12:50:06;2.03;;;1.67;;
5805;SDS011;2929;50.810;8.342;2024-01-15T12:52:33;1.77;;;1.53;;
5805;SDS011;2929;50.810;8.342;2024-01-15T12:55:03;1.93;;;1.60;;
5805;SDS011;2929;50.810;8.342;2024-01-15T12:57:31;1.40;;;1.27;;
5805;SDS011;2929;50.810;8.342;2024-01-15T12:59:59;1.50;;;1.40;;
5805;SDS011;2929;50.810;8.342;2024-01-15T13:02:26;2.10;;;1.37;;
5805;SDS011;2929;50.810;8.342;2024-01-15T13:04:53;1.80;;;1.30;;
5805;SDS011;2929;50.810;8.342;2024-01-15T13:07:21;0.90;;;0.90;;
5805;SDS011;2929;50.810;8.342;2024-01-15T13:09:48;1.90;;;1.50;;
5805;SDS011;2929;50.810;8.342;2024-01-15T13:12:18;1.10;;;1.00;;
5805;SDS011;2929;50.810;8.342;2024-01-15T13:14:46;1.27;;;1.13;;
5805;SDS011;2929;50.810;8.342;2024-01-15T13:17:14;1.07;;;0.97;;
5805;SDS011;2929;50.810;8.342;2024-01-15T13:19:41;2.60;;;1.00;;
5805;SDS011;2929;50.810;8.342;2024-01-15T13:22:09;1.30;;;1.20;;
5805;SDS011;2929;50.810;8.342;2024-01-15T13:24:39;2.10;;;1.27;;
5805;SDS011;2929;50.810;8.342;2024-01-15T13:27:06;1.00;;;1.00;;
5805;SDS011;2929;50.810;8.342;2024-01-15T13:29:33;1.00;;;0.90;;
5805;SDS011;2929;50.810;8.342;2024-01-15T13:32:01;1.83;;;1.50;;
5805;SDS011;2929;50.810;8.342;2024-01-15T13:34:31;1.37;;;1.27;;
5805;SDS011;2929;50.810;8.342;2024-01-15T13:36:58;2.57;;;1.07;;
5805;SDS011;2929;50.810;8.342;2024-01-15T13:39:25;2.00;;;1.33;;
5805;SDS011;2929;50.810;8.342;2024-01-15T13:41:52;2.03;;;1.67;;
5805;SDS011;2929;50.810;8.342;2024-01-15T13:44:19;1.70;;;1.47;;
5805;SDS011;2929;50.810;8.342;2024-01-15T13:46:46;1.50;;;1.40;;
5805;SDS011;2929;50.810;8.342;2024-01-15T13:49:13;1.37;;;1.27;;
5805;SDS011;2929;50.810;8.342;2024-01-15T13:51:41;3.23;;;1.73;;
5805;SDS011;2929;50.810;8.342;2024-01-15T13:54:09;3.40;;;2.20;;
5805;SDS011;2929;50.810;8.342;2024-01-15T13:56:36;6.00;;;2.53;;
5805;SDS011;2929;50.810;8.342;2024-01-15T13:59:03;2.20;;;1.43;;
5805;SDS011;2929;50.810;8.342;2024-01-15T14:01:30;4.20;;;2.10;;
5805;SDS011;2929;50.810;8.342;2024-01-15T14:03:58;4.83;;;1.60;;
5805;SDS011;2929;50.810;8.342;2024-01-15T14:06:26;3.23;;;2.27;;
5805;SDS011;2929;50.810;8.342;2024-01-15T14:08:54;7.80;;;1.90;;
5805;SDS011;2929;50.810;8.342;2024-01-15T14:11:21;1.63;;;1.53;;
5805;SDS011;2929;50.810;8.342;2024-01-15T14:13:50;2.83;;;1.63;;
5805;SDS011;2929;50.810;8.342;2024-01-15T14:16:19;2.30;;;2.07;;
5805;SDS011;2929;50.810;8.342;2024-01-15T14:18:47;8.20;;;1.70;;
5805;SDS011;2929;50.810;8.342;2024-01-15T14:21:14;2.43;;;1.70;;
5805;SDS011;2929;50.810;8.342;2024-01-15T14:23:41;3.50;;;1.90;;
5805;SDS011;2929;50.810;8.342;2024-01-15T14:26:09;6.60;;;2.37;;
5805;SDS011;2929;50.810;8.342;2024-01-15T14:28:36;3.13;;;2.30;;
5805;SDS011;2929;50.810;8.342;2024-01-15T14:31:04;5.00;;;3.13;;
5805;SDS011;2929;50.810;8.342;2024-01-15T14:33:31;7.73;;;2.73;;
5805;SDS011;2929;50.810;8.342;2024-01-15T14:35:58;3.60;;;2.23;;
5805;SDS011;2929;50.810;8.342;2024-01-15T14:38:25;3.60;;;2.60;;
5805;SDS011;2929;50.810;8.342;2024-01-15T14:40:51;8.80;;;2.60;;
5805;SDS011;2929;50.810;8.342;2024-01-15T14:43:20;6.87;;;2.93;;
5805;SDS011;2929;50.810;8.342;2024-01-15T14:45:47;5.83;;;2.63;;
5805;SDS011;2929;50.810;8.342;2024-01-15T14:48:14;3.60;;;2.77;;
5805;SDS011;2929;50.810;8.342;2024-01-15T14:50:41;4.40;;;2.93;;
5805;SDS011;2929;50.810;8.342;2024-01-15T14:53:08;2.97;;;2.67;;
5805;SDS011;2929;50.810;8.342;2024-01-15T14:55:35;2.70;;;2.50;;
5805;SDS011;2929;50.810;8.342;2024-01-15T14:58:02;2.60;;;2.40;;
5805;SDS011;2929;50.810;8.342;2024-01-15T15:00:32;3.20;;;2.57;;
5805;SDS011;2929;50.810;8.342;2024-01-15T15:02:59;5.30;;;2.70;;
5805;SDS011;2929;50.810;8.342;2024-01-15T15:05:26;4.20;;;2.90;;
5805;SDS011;2929;50.810;8.342;2024-01-15T15:07:53;4.47;;;2.90;;
5805;SDS011;2929;50.810;8.342;2024-01-15T15:10:20;2.70;;;2.50;;
5805;SDS011;2929;50.810;8.342;2024-01-15T15:12:47;6.83;;;2.70;;
5805;SDS011;2929;50.810;8.342;2024-01-15T15:15:14;4.97;;;2.80;;
5805;SDS011;2929;50.810;8.342;2024-01-15T15:17:43;5.60;;;3.03;;
5805;SDS011;2929;50.810;8.342;2024-01-15T15:20:11;5.50;;;2.37;;
5805;SDS011;2929;50.810;8.342;2024-01-15T15:22:38;3.53;;;3.17;;
5805;SDS011;2929;50.810;8.342;2024-01-15T15:25:05;3.13;;;2.73;;